sensor_id;sensor_type;location;lat;lon;timestamp;temperature;humidity
16267;DHT22;8241;48.786;9.250;2023-09-30T00:00:59;19.90;96.70
16267;DHT22;8241;48.786;9.250;2023-09-30T00:03:26;19.80;96.50
16267;DHT22;8241;48.786;9.250;2023-09-30T00:05:53;19.80;96.60
16267;DHT22;8241;48.786;9.250;2023-09-30T00:08:19;19.80;96.60
16267;DHT22;8241;48.786;9.250;2023-09-30T00:10:47;19.80;96.50
16267;DHT22;8241;48.786;9.250;2023-09-30T00:13:14;19.80;96.50
16267;DHT22;8241;48.786;9.250;2023-09-30T00:15:42;19.80;96.80
16267;DHT22;8241;48.786;9.250;2023-09-30T00:18:10;19.80;96.90
16267;DHT22;8241;48.786;9.250;2023-09-30T00:20:36;19.80;96.80
16267;DHT22;8241;48.786;9.250;2023-09-30T00:23:03;19.70;96.80
16267;DHT22;8241;48.786;9.250;2023-09-30T00:25:31;19.70;96.90
16267;DHT22;8241;48.786;9.250;2023-09-30T00:27:58;19.70;97.00
16267;DHT22;8241;48.786;9.250;2023-09-30T00:30:25;19.70;97.00
16267;DHT22;8241;48.786;9.250;2023-09-30T00:32:52;19.70;97.00
16267;DHT22;8241;48.786;9.250;2023-09-30T00:35:20;19.70;97.10
16267;DHT22;8241;48.786;9.250;2023-09-30T00:37:47;19.60;97.20
16267;DHT22;8241;48.786;9.250;2023-09-30T00:40:14;19.60;97.30
16267;DHT22;8241;48.786;9.250;2023-09-30T00:42:41;19.70;97.30
16267;DHT22;8241;48.786;9.250;2023-09-30T00:45:09;19.60;97.40
16267;DHT22;8241;48.786;9.250;2023-09-30T00:47:37;19.60;97.50
16267;DHT22;8241;48.786;9.250;2023-09-30T00:50:05;19.50;97.50
16267;DHT22;8241;48.786;9.250;2023-09-30T00:52:35;19.50;97.60
16267;DHT22;8241;48.786;9.250;2023-09-30T00:55:04;19.40;97.70
16267;DHT22;8241;48.786;9.250;2023-09-30T00:57:32;19.40;97.70
16267;DHT22;8241;48.786;9.250;2023-09-30T01:00:00;19.30;97.80
16267;DHT22;8241;48.786;9.250;2023-09-30T01:02:27;19.30;97.90
16267;DHT22;8241;48.786;9.250;2023-09-30T01:04:55;19.30;98.00
16267;DHT22;8241;48.786;9.250;2023-09-30T01:07:24;19.20;98.00
16267;DHT22;8241;48.786;9.250;2023-09-30T01:09:54;19.20;98.10
16267;DHT22;8241;48.786;9.250;2023-09-30T01:12:21;19.20;98.10
16267;DHT22;8241;48.786;9.250;2023-09-30T01:14:48;19.10;98.10
16267;DHT22;8241;48.786;9.250;2023-09-30T01:17:15;19.10;98.20
16267;DHT22;8241;48.786;9.250;2023-09-30T01:19:42;19.10;98.20
16267;DHT22;8241;48.786;9.250;2023-09-30T01:22:10;19.10;98.30
16267;DHT22;8241;48.786;9.250;2023-09-30T01:24:42;19.10;98.30
16267;DHT22;8241;48.786;9.250;2023-09-30T01:27:13;19.10;98.60
16267;DHT22;8241;48.786;9.250;2023-09-30T01:29:42;19.10;98.30
16267;DHT22;8241;48.786;9.250;2023-09-30T01:32:09;19.10;98.30
16267;DHT22;8241;48.786;9.250;2023-09-30T01:34:35;19.00;98.30
16267;DHT22;8241;48.786;9.250;2023-09-30T01:37:03;19.00;98.30
16267;DHT22;8241;48.786;9.250;2023-09-30T01:39:31;18.90;98.30
16267;DHT22;8241;48.786;9.250;2023-09-30T01:41:59;18.90;98.30
16267;DHT22;8241;48.786;9.250;2023-09-30T01:44:26;18.90;98.30
16267;DHT22;8241;48.786;9.250;2023-09-30T01:46:54;18.90;98.30
16267;DHT22;8241;48.786;9.250;2023-09-30T01:49:20;18.80;98.50
16267;DHT22;8241;48.786;9.250;2023-09-30T01:51:49;18.80;98.30
16267;DHT22;8241;48.786;9.250;2023-09-30T01:54:16;18.80;98.40
16267;DHT22;8241;48.786;9.250;2023-09-30T01:56:44;18.80;98.40
16267;DHT22;8241;48.786;9.250;2023-09-30T01:59:11;18.80;98.40
16267;DHT22;8241;48.786;9.250;2023-09-30T02:01:38;18.80;98.40
16267;DHT22;8241;48.786;9.250;2023-09-30T02:04:05;18.80;98.30
16267;DHT22;8241;48.786;9.250;2023-09-30T02:06:32;18.90;98.30
16267;DHT22;8241;48.786;9.250;2023-09-30T02:09:00;18.90;98.30
16267;DHT22;8241;48.786;9.250;2023-09-30T02:11:28;18.90;98.30
16267;DHT22;8241;48.786;9.250;2023-09-30T02:13:58;18.90;98.30
16267;DHT22;8241;48.786;9.250;2023-09-30T02:16:25;18.90;98.30
16267;DHT22;8241;48.786;9.250;2023-09-30T02:18:52;18.80;98.30
16267;DHT22;8241;48.786;9.250;2023-09-30T02:21:19;18.80;98.30
16267;DHT22;8241;48.786;9.250;2023-09-30T02:23:47;18.80;98.50
16267;DHT22;8241;48.786;9.250;2023-09-30T02:26:14;18.70;98.60
16267;DHT22;8241;48.786;9.250;2023-09-30T02:28:41;18.70;98.70
16267;DHT22;8241;48.786;9.250;2023-09-30T02:31:09;18.60;98.70
16267;DHT22;8241;48.786;9.250;2023-09-30T02:33:37;18.60;98.80
16267;DHT22;8241;48.786;9.250;2023-09-30T02:36:07;18.60;98.90
16267;DHT22;8241;48.786;9.250;2023-09-30T02:38:34;18.50;99.40
16267;DHT22;8241;48.786;9.250;2023-09-30T02:41:02;18.50;99.00
16267;DHT22;8241;48.786;9.250;2023-09-30T02:43:29;18.50;99.10
16267;DHT22;8241;48.786;9.250;2023-09-30T02:45:56;18.40;99.10
16267;DHT22;8241;48.786;9.250;2023-09-30T02:48:24;18.40;99.20
16267;DHT22;8241;48.786;9.250;2023-09-30T02:50:52;18.40;99.30
16267;DHT22;8241;48.786;9.250;2023-09-30T02:53:19;18.40;99.40
16267;DHT22;8241;48.786;9.250;2023-09-30T02:55:45;18.40;99.40
16267;DHT22;8241;48.786;9.250;2023-09-30T02:58:12;18.40;99.50
16267;DHT22;8241;48.786;9.250;2023-09-30T03:00:40;18.40;99.50
16267;DHT22;8241;48.786;9.250;2023-09-30T03:03:06;18.40;99.40
16267;DHT22;8241;48.786;9.250;2023-09-30T03:05:36;18.40;99.50
16267;DHT22;8241;48.786;9.250;2023-09-30T03:08:04;18.40;99.50
16267;DHT22;8241;48.786;9.250;2023-09-30T03:10:31;18.40;99.50
16267;DHT22;8241;48.786;9.250;2023-09-30T03:12:58;18.40;99.50
16267;DHT22;8241;48.786;9.250;2023-09-30T03:15:27;18.40;99.50
16267;DHT22;8241;48.786;9.250;2023-09-30T03:17:56;18.40;99.50
16267;DHT22;8241;48.786;9.250;2023-09-30T03:20:23;18.40;99.60
16267;DHT22;8241;48.786;9.250;2023-09-30T03:22:52;18.40;99.70
16267;DHT22;8241;48.786;9.250;2023-09-30T03:25:20;18.40;99.70
16267;DHT22;8241;48.786;9.250;2023-09-30T03:27:48;18.40;99.70
16267;DHT22;8241;48.786;9.250;2023-09-30T03:30:16;18.40;99.90
16267;DHT22;8241;48.786;9.250;2023-09-30T03:32:43;18.30;99.70
16267;DHT22;8241;48.786;9.250;2023-09-30T03:35:11;18.30;99.70
16267;DHT22;8241;48.786;9.250;2023-09-30T03:37:40;18.30;99.60
16267;DHT22;8241;48.786;9.250;2023-09-30T03:40:09;18.40;99.70
16267;DHT22;8241;48.786;9.250;2023-09-30T03:42:40;18.40;99.60
16267;DHT22;8241;48.786;9.250;2023-09-30T03:45:09;18.40;99.60
16267;DHT22;8241;48.786;9.250;2023-09-30T03:47:36;18.30;99.50
16267;DHT22;8241;48.786;9.250;2023-09-30T03:50:04;18.40;99.50
16267;DHT22;8241;48.786;9.250;2023-09-30T03:52:38;18.40;99.40
16267;DHT22;8241;48.786;9.250;2023-09-30T03:55:06;18.30;99.40
16267;DHT22;8241;48.786;9.250;2023-09-30T03:57:34;18.30;99.60
16267;DHT22;8241;48.786;9.250;2023-09-30T04:00:01;18.20;99.70
16267;DHT22;8241;48.786;9.250;2023-09-30T04:02:38;18.20;99.80
16267;DHT22;8241;48.786;9.250;2023-09-30T04:05:05;18.10;99.90
16267;DHT22;8241;48.786;9.250;2023-09-30T04:07:32;18.20;99.90
16267;DHT22;8241;48.786;9.250;2023-09-30T04:10:02;18.10;99.90
16267;DHT22;8241;48.786;9.250;2023-09-30T04:12:30;18.00;99.90
16267;DHT22;8241;48.786;9.250;2023-09-30T04:14:59;18.00;99.90
16267;DHT22;8241;48.786;9.250;2023-09-30T04:17:26;18.00;99.90
16267;DHT22;8241;48.786;9.250;2023-09-30T04:19:53;18.00;99.90
16267;DHT22;8241;48.786;9.250;2023-09-30T04:22:20;18.00;99.90
16267;DHT22;8241;48.786;9.250;2023-09-30T04:24:47;18.00;99.90
16267;DHT22;8241;48.786;9.250;2023-09-30T04:27:16;18.00;99.90
16267;DHT22;8241;48.786;9.250;2023-09-30T04:29:43;18.00;99.90
16267;DHT22;8241;48.786;9.250;2023-09-30T04:32:17;18.00;99.90
16267;DHT22;8241;48.786;9.250;2023-09-30T04:34:45;18.10;99.90
16267;DHT22;8241;48.786;9.250;2023-09-30T04:37:12;18.10;99.90
16267;DHT22;8241;48.786;9.250;2023-09-30T04:39:40;18.10;99.90
16267;DHT22;8241;48.786;9.250;2023-09-30T04:42:10;18.10;99.90
16267;DHT22;8241;48.786;9.250;2023-09-30T04:44:37;18.10;99.90
16267;DHT22;8241;48.786;9.250;2023-09-30T04:47:08;18.10;99.90
16267;DHT22;8241;48.786;9.250;2023-09-30T04:49:39;18.10;99.90
16267;DHT22;8241;48.786;9.250;2023-09-30T04:52:06;18.10;99.90
16267;DHT22;8241;48.786;9.250;2023-09-30T04:54:33;18.00;99.90
16267;DHT22;8241;48.786;9.250;2023-09-30T04:57:01;18.00;99.90
16267;DHT22;8241;48.786;9.250;2023-09-30T04:59:30;18.00;99.90
16267;DHT22;8241;48.786;9.250;2023-09-30T05:01:56;18.00;99.90
16267;DHT22;8241;48.786;9.250;2023-09-30T05:04:23;18.00;99.90
16267;DHT22;8241;48.786;9.250;2023-09-30T05:06:53;17.90;99.90
16267;DHT22;8241;48.786;9.250;2023-09-30T05:09:29;17.90;99.90
16267;DHT22;8241;48.786;9.250;2023-09-30T05:11:57;17.90;99.90
16267;DHT22;8241;48.786;9.250;2023-09-30T05:14:24;18.00;99.90
16267;DHT22;8241;48.786;9.250;2023-09-30T05:16:51;18.00;99.90
16267;DHT22;8241;48.786;9.250;2023-09-30T05:19:18;18.00;99.90
16267;DHT22;8241;48.786;9.250;2023-09-30T05:21:52;18.10;99.90
16267;DHT22;8241;48.786;9.250;2023-09-30T05:24:21;18.00;99.90
16267;DHT22;8241;48.786;9.250;2023-09-30T05:26:49;17.90;99.90
16267;DHT22;8241;48.786;9.250;2023-09-30T05:29:15;17.90;99.90
16267;DHT22;8241;48.786;9.250;2023-09-30T05:31:42;17.80;99.90
16267;DHT22;8241;48.786;9.250;2023-09-30T05:34:10;17.80;99.90
16267;DHT22;8241;48.786;9.250;2023-09-30T05:36:37;17.80;99.90
16267;DHT22;8241;48.786;9.250;2023-09-30T05:39:05;17.90;99.90
16267;DHT22;8241;48.786;9.250;2023-09-30T05:41:32;17.90;99.90
16267;DHT22;8241;48.786;9.250;2023-09-30T05:43:59;17.90;99.90
16267;DHT22;8241;48.786;9.250;2023-09-30T05:46:26;17.90;99.90
16267;DHT22;8241;48.786;9.250;2023-09-30T05:48:53;18.00;99.90
16267;DHT22;8241;48.786;9.250;2023-09-30T05:51:20;17.90;99.90
16267;DHT22;8241;48.786;9.250;2023-09-30T05:53:47;18.00;99.90
16267;DHT22;8241;48.786;9.250;2023-09-30T05:56:15;17.90;99.90
16267;DHT22;8241;48.786;9.250;2023-09-30T05:58:42;17.90;99.90
16267;DHT22;8241;48.786;9.250;2023-09-30T06:01:09;17.90;99.90
16267;DHT22;8241;48.786;9.250;2023-09-30T06:03:38;17.90;99.90
16267;DHT22;8241;48.786;9.250;2023-09-30T06:06:11;18.00;99.90
16267;DHT22;8241;48.786;9.250;2023-09-30T06:08:39;18.10;99.90
16267;DHT22;8241;48.786;9.250;2023-09-30T06:11:06;18.10;99.90
16267;DHT22;8241;48.786;9.250;2023-09-30T06:13:34;18.20;99.90
16267;DHT22;8241;48.786;9.250;2023-09-30T06:16:01;18.20;99.90
16267;DHT22;8241;48.786;9.250;2023-09-30T06:18:28;18.20;99.90
16267;DHT22;8241;48.786;9.250;2023-09-30T06:20:55;18.20;99.90
16267;DHT22;8241;48.786;9.250;2023-09-30T06:23:23;18.20;99.90
16267;DHT22;8241;48.786;9.250;2023-09-30T06:25:50;18.20;99.90
16267;DHT22;8241;48.786;9.250;2023-09-30T06:28:17;18.30;99.90
16267;DHT22;8241;48.786;9.250;2023-09-30T06:30:45;18.30;99.90
16267;DHT22;8241;48.786;9.250;2023-09-30T06:33:12;18.30;99.90
16267;DHT22;8241;48.786;9.250;2023-09-30T06:35:41;18.40;99.90
16267;DHT22;8241;48.786;9.250;2023-09-30T06:38:16;18.40;99.90
16267;DHT22;8241;48.786;9.250;2023-09-30T06:40:43;18.40;99.90
16267;DHT22;8241;48.786;9.250;2023-09-30T06:43:12;18.50;99.90
16267;DHT22;8241;48.786;9.250;2023-09-30T06:45:41;18.50;99.90
16267;DHT22;8241;48.786;9.250;2023-09-30T06:48:10;18.50;99.70
16267;DHT22;8241;48.786;9.250;2023-09-30T06:50:39;18.50;99.70
16267;DHT22;8241;48.786;9.250;2023-09-30T06:53:06;18.60;99.70
16267;DHT22;8241;48.786;9.250;2023-09-30T06:55:36;18.70;99.50
16267;DHT22;8241;48.786;9.250;2023-09-30T06:58:03;18.80;99.30
16267;DHT22;8241;48.786;9.250;2023-09-30T07:00:33;18.90;99.20
16267;DHT22;8241;48.786;9.250;2023-09-30T07:03:00;18.90;99.10
16267;DHT22;8241;48.786;9.250;2023-09-30T07:05:29;19.00;99.00
16267;DHT22;8241;48.786;9.250;2023-09-30T07:07:56;19.00;98.90
16267;DHT22;8241;48.786;9.250;2023-09-30T07:10:23;19.00;98.90
16267;DHT22;8241;48.786;9.250;2023-09-30T07:12:50;19.00;98.80
16267;DHT22;8241;48.786;9.250;2023-09-30T07:15:18;19.00;98.50
16267;DHT22;8241;48.786;9.250;2023-09-30T07:17:48;19.10;98.70
16267;DHT22;8241;48.786;9.250;2023-09-30T07:20:15;19.10;98.60
16267;DHT22;8241;48.786;9.250;2023-09-30T07:22:46;19.10;98.50
16267;DHT22;8241;48.786;9.250;2023-09-30T07:25:13;19.10;98.50
16267;DHT22;8241;48.786;9.250;2023-09-30T07:27:42;19.10;98.40
16267;DHT22;8241;48.786;9.250;2023-09-30T07:30:10;19.10;98.40
16267;DHT22;8241;48.786;9.250;2023-09-30T07:32:37;19.00;98.40
16267;DHT22;8241;48.786;9.250;2023-09-30T07:35:05;19.00;98.40
16267;DHT22;8241;48.786;9.250;2023-09-30T07:37:32;19.00;98.30
16267;DHT22;8241;48.786;9.250;2023-09-30T07:40:00;19.00;98.30
16267;DHT22;8241;48.786;9.250;2023-09-30T07:42:27;19.00;98.30
16267;DHT22;8241;48.786;9.250;2023-09-30T07:44:55;19.00;98.30
16267;DHT22;8241;48.786;9.250;2023-09-30T07:47:22;19.00;98.30
16267;DHT22;8241;48.786;9.250;2023-09-30T07:49:49;19.10;98.30
16267;DHT22;8241;48.786;9.250;2023-09-30T07:52:15;19.10;98.20
16267;DHT22;8241;48.786;9.250;2023-09-30T07:54:42;19.20;98.20
16267;DHT22;8241;48.786;9.250;2023-09-30T07:57:11;19.20;98.20
16267;DHT22;8241;48.786;9.250;2023-09-30T07:59:38;19.20;98.30
16267;DHT22;8241;48.786;9.250;2023-09-30T08:02:05;19.20;98.30
16267;DHT22;8241;48.786;9.250;2023-09-30T08:04:32;19.20;98.70
16267;DHT22;8241;48.786;9.250;2023-09-30T08:06:59;19.20;98.50
16267;DHT22;8241;48.786;9.250;2023-09-30T08:09:26;19.20;98.50
16267;DHT22;8241;48.786;9.250;2023-09-30T08:11:53;19.30;98.10
16267;DHT22;8241;48.786;9.250;2023-09-30T08:14:22;19.30;98.20
16267;DHT22;8241;48.786;9.250;2023-09-30T08:16:49;19.20;98.20
16267;DHT22;8241;48.786;9.250;2023-09-30T08:19:16;19.30;98.20
16267;DHT22;8241;48.786;9.250;2023-09-30T08:21:43;19.30;98.10
16267;DHT22;8241;48.786;9.250;2023-09-30T08:24:10;19.30;98.00
16267;DHT22;8241;48.786;9.250;2023-09-30T08:26:37;19.30;98.00
16267;DHT22;8241;48.786;9.250;2023-09-30T08:29:04;19.40;97.70
16267;DHT22;8241;48.786;9.250;2023-09-30T08:31:34;19.40;97.60
16267;DHT22;8241;48.786;9.250;2023-09-30T08:34:01;19.40;97.50
16267;DHT22;8241;48.786;9.250;2023-09-30T08:36:29;19.40;97.30
16267;DHT22;8241;48.786;9.250;2023-09-30T08:38:56;19.40;97.20
16267;DHT22;8241;48.786;9.250;2023-09-30T08:41:30;19.40;97.30
16267;DHT22;8241;48.786;9.250;2023-09-30T08:44:00;19.40;97.40
16267;DHT22;8241;48.786;9.250;2023-09-30T08:46:29;19.40;97.20
16267;DHT22;8241;48.786;9.250;2023-09-30T08:49:00;19.40;97.20
16267;DHT22;8241;48.786;9.250;2023-09-30T08:51:29;19.50;97.20
16267;DHT22;8241;48.786;9.250;2023-09-30T08:53:56;19.40;97.20
16267;DHT22;8241;48.786;9.250;2023-09-30T08:56:26;19.50;97.30
16267;DHT22;8241;48.786;9.250;2023-09-30T08:58:55;19.50;97.20
16267;DHT22;8241;48.786;9.250;2023-09-30T09:01:23;19.50;97.10
16267;DHT22;8241;48.786;9.250;2023-09-30T09:03:50;19.60;97.00
16267;DHT22;8241;48.786;9.250;2023-09-30T09:06:20;19.60;97.00
16267;DHT22;8241;48.786;9.250;2023-09-30T09:08:46;19.60;96.90
16267;DHT22;8241;48.786;9.250;2023-09-30T09:11:14;19.60;96.80
16267;DHT22;8241;48.786;9.250;2023-09-30T09:13:48;19.60;96.50
16267;DHT22;8241;48.786;9.250;2023-09-30T09:16:16;19.60;96.70
16267;DHT22;8241;48.786;9.250;2023-09-30T09:18:44;19.70;96.80
16267;DHT22;8241;48.786;9.250;2023-09-30T09:21:12;19.80;96.90
16267;DHT22;8241;48.786;9.250;2023-09-30T09:23:42;19.80;96.90
16267;DHT22;8241;48.786;9.250;2023-09-30T09:26:10;19.80;96.90
16267;DHT22;8241;48.786;9.250;2023-09-30T09:28:38;19.90;96.60
16267;DHT22;8241;48.786;9.250;2023-09-30T09:31:21;20.00;96.20
16267;DHT22;8241;48.786;9.250;2023-09-30T09:33:49;20.10;96.00
16267;DHT22;8241;48.786;9.250;2023-09-30T09:36:16;20.20;95.90
16267;DHT22;8241;48.786;9.250;2023-09-30T09:38:48;20.30;95.90
16267;DHT22;8241;48.786;9.250;2023-09-30T09:41:18;20.40;95.80
16267;DHT22;8241;48.786;9.250;2023-09-30T09:43:48;20.50;95.00
16267;DHT22;8241;48.786;9.250;2023-09-30T09:46:16;20.40;94.40
16267;DHT22;8241;48.786;9.250;2023-09-30T09:48:45;20.40;94.80
16267;DHT22;8241;48.786;9.250;2023-09-30T09:51:13;20.40;95.20
16267;DHT22;8241;48.786;9.250;2023-09-30T09:53:41;20.50;95.20
16267;DHT22;8241;48.786;9.250;2023-09-30T09:56:11;20.60;95.00
16267;DHT22;8241;48.786;9.250;2023-09-30T09:58:40;20.60;94.90
16267;DHT22;8241;48.786;9.250;2023-09-30T10:01:09;20.60;94.70
16267;DHT22;8241;48.786;9.250;2023-09-30T10:03:37;20.70;94.60
16267;DHT22;8241;48.786;9.250;2023-09-30T10:06:05;20.70;94.40
16267;DHT22;8241;48.786;9.250;2023-09-30T10:08:35;20.80;93.90
16267;DHT22;8241;48.786;9.250;2023-09-30T10:11:03;20.90;94.00
16267;DHT22;8241;48.786;9.250;2023-09-30T10:13:56;21.20;93.80
16267;DHT22;8241;48.786;9.250;2023-09-30T10:16:48;21.60;92.80
16267;DHT22;8241;48.786;9.250;2023-09-30T10:19:17;22.00;92.70
16267;DHT22;8241;48.786;9.250;2023-09-30T10:22:21;22.40;91.90
16267;DHT22;8241;48.786;9.250;2023-09-30T10:24:50;22.90;91.20
16267;DHT22;8241;48.786;9.250;2023-09-30T10:27:34;23.20;90.10
16267;DHT22;8241;48.786;9.250;2023-09-30T10:30:12;23.50;89.50
16267;DHT22;8241;48.786;9.250;2023-09-30T10:33:07;23.80;88.20
16267;DHT22;8241;48.786;9.250;2023-09-30T10:35:43;24.00;88.20
16267;DHT22;8241;48.786;9.250;2023-09-30T10:38:40;23.90;87.00
16267;DHT22;8241;48.786;9.250;2023-09-30T10:41:08;23.50;87.20
16267;DHT22;8241;48.786;9.250;2023-09-30T10:43:37;23.10;88.20
16267;DHT22;8241;48.786;9.250;2023-09-30T10:46:32;22.80;90.00
16267;DHT22;8241;48.786;9.250;2023-09-30T10:49:15;22.50;90.00
16267;DHT22;8241;48.786;9.250;2023-09-30T10:51:43;22.20;89.90
16267;DHT22;8241;48.786;9.250;2023-09-30T10:54:12;22.20;89.80
16267;DHT22;8241;48.786;9.250;2023-09-30T10:56:39;22.10;90.60
16267;DHT22;8241;48.786;9.250;2023-09-30T10:59:06;22.00;90.90
16267;DHT22;8241;48.786;9.250;2023-09-30T11:01:36;22.10;90.80
16267;DHT22;8241;48.786;9.250;2023-09-30T11:04:04;22.00;90.70
16267;DHT22;8241;48.786;9.250;2023-09-30T11:06:32;21.90;90.70
16267;DHT22;8241;48.786;9.250;2023-09-30T11:09:01;21.80;90.40
16267;DHT22;8241;48.786;9.250;2023-09-30T11:11:36;21.70;90.40
16267;DHT22;8241;48.786;9.250;2023-09-30T11:14:03;21.70;90.90
16267;DHT22;8241;48.786;9.250;2023-09-30T11:16:41;21.70;90.90
16267;DHT22;8241;48.786;9.250;2023-09-30T11:19:09;21.70;90.90
16267;DHT22;8241;48.786;9.250;2023-09-30T11:21:35;21.60;90.30
16267;DHT22;8241;48.786;9.250;2023-09-30T11:24:03;21.50;90.70
16267;DHT22;8241;48.786;9.250;2023-09-30T11:26:31;21.50;90.90
16267;DHT22;8241;48.786;9.250;2023-09-30T11:29:05;21.50;91.10
16267;DHT22;8241;48.786;9.250;2023-09-30T11:31:32;21.50;91.10
16267;DHT22;8241;48.786;9.250;2023-09-30T11:34:01;21.50;90.90
16267;DHT22;8241;48.786;9.250;2023-09-30T11:36:30;21.60;90.70
16267;DHT22;8241;48.786;9.250;2023-09-30T11:38:57;21.70;90.10
16267;DHT22;8241;48.786;9.250;2023-09-30T11:41:33;21.80;89.70
16267;DHT22;8241;48.786;9.250;2023-09-30T11:44:02;21.90;89.20
16267;DHT22;8241;48.786;9.250;2023-09-30T11:46:30;22.00;88.30
16267;DHT22;8241;48.786;9.250;2023-09-30T11:49:02;22.30;87.50
16267;DHT22;8241;48.786;9.250;2023-09-30T11:51:34;22.90;86.20
16267;DHT22;8241;48.786;9.250;2023-09-30T11:54:09;23.50;85.10
16267;DHT22;8241;48.786;9.250;2023-09-30T11:56:37;24.00;82.90
16267;DHT22;8241;48.786;9.250;2023-09-30T11:59:04;23.80;81.60
16267;DHT22;8241;48.786;9.250;2023-09-30T12:01:30;23.80;82.90
16267;DHT22;8241;48.786;9.250;2023-09-30T12:03:57;24.20;81.90
16267;DHT22;8241;48.786;9.250;2023-09-30T12:06:26;24.70;80.30
16267;DHT22;8241;48.786;9.250;2023-09-30T12:08:53;24.80;80.50
16267;DHT22;8241;48.786;9.250;2023-09-30T12:11:19;25.00;80.80
16267;DHT22;8241;48.786;9.250;2023-09-30T12:13:49;25.00;81.30
16267;DHT22;8241;48.786;9.250;2023-09-30T12:16:18;25.00;80.70
16267;DHT22;8241;48.786;9.250;2023-09-30T12:18:45;25.20;79.80
16267;DHT22;8241;48.786;9.250;2023-09-30T12:21:12;24.90;79.40
16267;DHT22;8241;48.786;9.250;2023-09-30T12:23:41;24.60;80.10
16267;DHT22;8241;48.786;9.250;2023-09-30T12:26:08;24.20;80.60
16267;DHT22;8241;48.786;9.250;2023-09-30T12:28:37;23.80;81.40
16267;DHT22;8241;48.786;9.250;2023-09-30T12:31:06;23.30;82.10
16267;DHT22;8241;48.786;9.250;2023-09-30T12:33:33;23.10;83.30
16267;DHT22;8241;48.786;9.250;2023-09-30T12:36:00;23.00;83.80
16267;DHT22;8241;48.786;9.250;2023-09-30T12:38:27;23.20;84.10
16267;DHT22;8241;48.786;9.250;2023-09-30T12:40:56;23.40;84.00
16267;DHT22;8241;48.786;9.250;2023-09-30T12:43:22;23.50;84.20
16267;DHT22;8241;48.786;9.250;2023-09-30T12:45:50;23.50;83.50
16267;DHT22;8241;48.786;9.250;2023-09-30T12:48:17;23.60;81.50
16267;DHT22;8241;48.786;9.250;2023-09-30T12:50:44;23.70;81.30
16267;DHT22;8241;48.786;9.250;2023-09-30T12:53:11;23.70;81.50
16267;DHT22;8241;48.786;9.250;2023-09-30T12:55:37;23.80;82.10
16267;DHT22;8241;48.786;9.250;2023-09-30T12:58:05;23.60;82.50
16267;DHT22;8241;48.786;9.250;2023-09-30T13:00:34;23.70;83.10
16267;DHT22;8241;48.786;9.250;2023-09-30T13:03:02;23.70;81.70
16267;DHT22;8241;48.786;9.250;2023-09-30T13:05:29;23.80;81.90
16267;DHT22;8241;48.786;9.250;2023-09-30T13:07:56;23.60;81.20
16267;DHT22;8241;48.786;9.250;2023-09-30T13:10:23;23.30;80.00
16267;DHT22;8241;48.786;9.250;2023-09-30T13:12:50;22.90;80.70
16267;DHT22;8241;48.786;9.250;2023-09-30T13:15:21;22.90;82.60
16267;DHT22;8241;48.786;9.250;2023-09-30T13:17:49;23.00;83.00
16267;DHT22;8241;48.786;9.250;2023-09-30T13:20:16;23.10;82.80
16267;DHT22;8241;48.786;9.250;2023-09-30T13:22:43;23.30;83.20
16267;DHT22;8241;48.786;9.250;2023-09-30T13:25:11;23.40;82.20
16267;DHT22;8241;48.786;9.250;2023-09-30T13:27:38;23.40;82.10
16267;DHT22;8241;48.786;9.250;2023-09-30T13:30:07;23.50;82.40
16267;DHT22;8241;48.786;9.250;2023-09-30T13:32:35;23.60;82.40
16267;DHT22;8241;48.786;9.250;2023-09-30T13:35:02;23.50;82.30
16267;DHT22;8241;48.786;9.250;2023-09-30T13:37:29;23.50;82.70
16267;DHT22;8241;48.786;9.250;2023-09-30T13:39:59;23.60;83.60
16267;DHT22;8241;48.786;9.250;2023-09-30T13:42:25;23.70;83.90
16267;DHT22;8241;48.786;9.250;2023-09-30T13:44:52;23.90;83.30
16267;DHT22;8241;48.786;9.250;2023-09-30T13:47:19;24.20;82.30
16267;DHT22;8241;48.786;9.250;2023-09-30T13:49:47;24.40;81.90
16267;DHT22;8241;48.786;9.250;2023-09-30T13:52:14;24.70;80.20
16267;DHT22;8241;48.786;9.250;2023-09-30T13:54:40;25.10;79.40
16267;DHT22;8241;48.786;9.250;2023-09-30T13:57:07;25.60;78.20
16267;DHT22;8241;48.786;9.250;2023-09-30T13:59:34;25.90;76.80
16267;DHT22;8241;48.786;9.250;2023-09-30T14:02:01;26.10;76.00
16267;DHT22;8241;48.786;9.250;2023-09-30T14:04:29;25.80;75.40
16267;DHT22;8241;48.786;9.250;2023-09-30T14:06:57;25.50;76.50
16267;DHT22;8241;48.786;9.250;2023-09-30T14:09:25;25.00;77.40
16267;DHT22;8241;48.786;9.250;2023-09-30T14:11:52;24.60;78.50
16267;DHT22;8241;48.786;9.250;2023-09-30T14:14:18;24.30;79.60
16267;DHT22;8241;48.786;9.250;2023-09-30T14:16:45;24.00;80.30
16267;DHT22;8241;48.786;9.250;2023-09-30T14:19:12;23.70;80.80
16267;DHT22;8241;48.786;9.250;2023-09-30T14:21:39;23.60;81.40
16267;DHT22;8241;48.786;9.250;2023-09-30T14:24:07;23.40;81.90
16267;DHT22;8241;48.786;9.250;2023-09-30T14:26:34;23.30;82.30
16267;DHT22;8241;48.786;9.250;2023-09-30T14:29:01;23.10;82.50
16267;DHT22;8241;48.786;9.250;2023-09-30T14:31:28;23.00;83.10
16267;DHT22;8241;48.786;9.250;2023-09-30T14:33:54;22.90;83.60
16267;DHT22;8241;48.786;9.250;2023-09-30T14:36:21;22.90;83.70
16267;DHT22;8241;48.786;9.250;2023-09-30T14:38:48;22.80;83.70
16267;DHT22;8241;48.786;9.250;2023-09-30T14:41:16;22.80;83.60
16267;DHT22;8241;48.786;9.250;2023-09-30T14:43:43;22.80;84.00
16267;DHT22;8241;48.786;9.250;2023-09-30T14:46:10;22.70;84.10
16267;DHT22;8241;48.786;9.250;2023-09-30T14:48:38;22.70;84.00
16267;DHT22;8241;48.786;9.250;2023-09-30T14:51:05;22.60;84.30
16267;DHT22;8241;48.786;9.250;2023-09-30T14:53:33;22.60;84.10
16267;DHT22;8241;48.786;9.250;2023-09-30T14:55:59;22.50;84.60
16267;DHT22;8241;48.786;9.250;2023-09-30T14:58:27;22.40;84.60
16267;DHT22;8241;48.786;9.250;2023-09-30T15:00:54;22.40;85.20
16267;DHT22;8241;48.786;9.250;2023-09-30T15:03:21;22.40;85.20
16267;DHT22;8241;48.786;9.250;2023-09-30T15:05:47;22.30;85.10
16267;DHT22;8241;48.786;9.250;2023-09-30T15:08:14;22.30;85.20
16267;DHT22;8241;48.786;9.250;2023-09-30T15:10:41;22.30;84.90
16267;DHT22;8241;48.786;9.250;2023-09-30T15:13:07;22.30;84.90
16267;DHT22;8241;48.786;9.250;2023-09-30T15:15:36;22.30;85.00
16267;DHT22;8241;48.786;9.250;2023-09-30T15:18:03;22.30;85.20
16267;DHT22;8241;48.786;9.250;2023-09-30T15:20:30;22.30;85.30
16267;DHT22;8241;48.786;9.250;2023-09-30T15:22:56;22.20;84.90
16267;DHT22;8241;48.786;9.250;2023-09-30T15:25:23;22.30;85.10
16267;DHT22;8241;48.786;9.250;2023-09-30T15:27:50;22.20;85.00
16267;DHT22;8241;48.786;9.250;2023-09-30T15:30:17;22.10;85.00
16267;DHT22;8241;48.786;9.250;2023-09-30T15:32:45;22.10;85.00
16267;DHT22;8241;48.786;9.250;2023-09-30T15:35:12;22.10;85.20
16267;DHT22;8241;48.786;9.250;2023-09-30T15:37:38;22.00;85.10
16267;DHT22;8241;48.786;9.250;2023-09-30T15:40:06;22.00;85.20
16267;DHT22;8241;48.786;9.250;2023-09-30T15:43:13;22.10;85.10
16267;DHT22;8241;48.786;9.250;2023-09-30T15:45:40;22.10;85.30
16267;DHT22;8241;48.786;9.250;2023-09-30T15:48:06;22.10;85.10
16267;DHT22;8241;48.786;9.250;2023-09-30T15:50:33;22.00;84.90
16267;DHT22;8241;48.786;9.250;2023-09-30T15:53:00;22.00;85.30